Time;durP1;ratioP1;P1;durP2;ratioP2;P2;SDS_P1;SDS_P2;PMS_P1;PMS_P2;Temp;Humidity;BMP_temperature;BMP_pressure;BME280_temperature;BME280_humidity;BME280_pressure;Samples;Min_cycle;Max_cycle;Signal;HPM_P1;HPM_P2
2021/12/19 00:09:16;;;;;;;4.70;4.18;;;7.90;99.90;;;;;;5022129;28;20160;-56
2021/12/19 00:11:43;;;;;;;5.30;4.35;;;7.90;99.90;;;;;;5020157;28;20187;-57
2021/12/19 00:14:09;;;;;;;4.97;4.03;;;7.90;99.90;;;;;;5020775;28;20454;-56
2021/12/19 00:16:36;;;;;;;5.47;4.15;;;7.90;99.90;;;;;;5020527;28;20139;-57
2021/12/19 00:19:03;;;;;;;5.55;3.97;;;7.90;99.90;;;;;;5021835;28;20603;-58
2021/12/19 00:21:30;;;;;;;4.65;3.90;;;7.90;99.90;;;;;;5021129;28;20153;-57
2021/12/19 00:23:57;;;;;;;5.03;3.75;;;7.90;99.90;;;;;;5021721;28;20136;-58
2021/12/19 00:26:24;;;;;;;4.63;3.55;;;7.90;99.90;;;;;;5020701;28;20123;-58
2021/12/19 00:28:51;;;;;;;4.97;3.60;;;7.90;99.90;;;;;;5019719;28;20083;-57
2021/12/19 00:31:17;;;;;;;4.05;3.47;;;7.90;99.90;;;;;;5020626;28;20057;-55
2021/12/19 00:33:44;;;;;;;5.82;4.22;;;7.90;99.90;;;;;;5021774;28;20272;-57
2021/12/19 00:36:12;;;;;;;4.53;3.38;;;7.80;99.90;;;;;;5021961;28;20132;-58
2021/12/19 00:38:39;;;;;;;5.07;4.07;;;7.80;99.90;;;;;;5020410;28;20172;-56
2021/12/19 00:41:06;;;;;;;5.35;4.43;;;7.80;99.90;;;;;;5021551;28;20053;-55
2021/12/19 00:46:27;;;;;;;5.35;4.30;;;7.80;99.90;;;;;;5019842;28;20095;-57
2021/12/19 00:48:54;;;;;;;5.28;3.97;;;7.80;99.90;;;;;;5021426;28;20180;-57
2021/12/19 00:51:23;;;;;;;5.05;4.07;;;7.80;99.90;;;;;;5021064;28;20136;-58
2021/12/19 00:53:51;;;;;;;5.60;4.43;;;7.80;99.90;;;;;;5020947;28;20152;-57
2021/12/19 00:56:18;;;;;;;5.50;4.70;;;7.80;99.90;;;;;;5019205;28;20049;-54
2021/12/19 00:58:45;;;;;;;5.28;4.38;;;7.80;99.90;;;;;;5018081;28;20172;-55
2021/12/19 01:01:13;;;;;;;6.10;4.80;;;7.80;99.90;;;;;;5019851;28;20553;-57
2021/12/19 01:03:46;;;;;;;6.45;5.22;;;7.70;99.90;;;;;;5019717;28;20167;-57
2021/12/19 01:06:16;;;;;;;6.38;5.63;;;7.70;99.90;;;;;;5018619;28;20053;-55
2021/12/19 01:08:42;;;;;;;5.80;5.00;;;7.70;99.90;;;;;;5020216;28;20343;-58
2021/12/19 01:11:09;;;;;;;7.20;5.25;;;7.70;99.90;;;;;;5019569;28;20156;-57
2021/12/19 01:13:36;;;;;;;6.68;5.57;;;7.70;99.90;;;;;;5020168;28;20041;-56
2021/12/19 01:16:03;;;;;;;6.50;5.30;;;7.60;99.90;;;;;;5022879;28;20049;-57
2021/12/19 01:18:30;;;;;;;5.78;4.72;;;7.60;99.90;;;;;;5022260;28;20163;-57
2021/12/19 01:20:56;;;;;;;6.20;5.07;;;7.50;99.90;;;;;;5023100;28;20516;-51
2021/12/19 01:23:23;;;;;;;6.60;5.22;;;7.50;99.90;;;;;;5023283;28;20188;-57
2021/12/19 01:25:50;;;;;;;5.85;5.10;;;7.50;99.90;;;;;;5023386;28;20408;-58
2021/12/19 01:28:18;;;;;;;6.03;4.60;;;7.50;99.90;;;;;;5021555;28;20081;-59
2021/12/19 01:30:45;;;;;;;6.97;5.55;;;7.50;99.90;;;;;;5022798;28;20166;-58
2021/12/19 01:33:11;;;;;;;6.80;5.78;;;7.50;99.90;;;;;;5023031;28;20164;-57
2021/12/19 01:35:38;;;;;;;6.45;5.50;;;7.50;99.90;;;;;;5022927;28;20057;-58
2021/12/19 01:38:05;;;;;;;6.32;5.32;;;7.40;99.90;;;;;;5020825;28;20561;-59
2021/12/19 01:40:32;;;;;;;5.65;5.05;;;7.40;99.90;;;;;;5022441;28;20148;-58
2021/12/19 01:42:59;;;;;;;6.30;5.28;;;7.40;99.90;;;;;;5021004;28;20088;-59
2021/12/19 01:45:28;;;;;;;6.40;4.93;;;7.50;99.90;;;;;;5022631;28;20129;-56
2021/12/19 01:47:55;;;;;;;7.25;5.22;;;7.50;99.90;;;;;;5021905;28;20081;-57
2021/12/19 01:50:22;;;;;;;7.97;6.22;;;7.50;99.90;;;;;;5022565;28;20046;-58
2021/12/19 01:52:49;;;;;;;6.20;4.65;;;7.50;99.90;;;;;;5023039;28;20100;-57
2021/12/19 01:55:16;;;;;;;6.38;5.10;;;7.60;99.90;;;;;;5021326;28;20068;-57
2021/12/19 01:57:43;;;;;;;8.85;5.90;;;7.60;99.90;;;;;;5019023;28;20144;-58
2021/12/19 02:00:23;;;;;;;6.80;5.18;;;7.50;99.90;;;;;;5021903;28;20141;-56
2021/12/19 02:02:50;;;;;;;6.75;5.50;;;7.50;99.90;;;;;;5021771;28;20063;-59
2021/12/19 02:05:17;;;;;;;6.47;5.28;;;7.50;99.90;;;;;;5020804;28;20049;-55
2021/12/19 02:07:46;;;;;;;7.75;4.57;;;7.40;99.90;;;;;;5020916;28;20456;-57
2021/12/19 02:10:20;;;;;;;7.85;5.18;;;7.40;99.90;;;;;;5021800;28;20092;-58
2021/12/19 02:12:48;;;;;;;6.47;5.15;;;7.50;99.90;;;;;;5019845;28;20680;-59
2021/12/19 02:15:18;;;;;;;6.38;4.78;;;7.50;99.90;;;;;;5022087;28;20136;-58
2021/12/19 02:17:45;;;;;;;6.82;5.00;;;7.50;99.90;;;;;;5020788;28;20208;-56
2021/12/19 02:20:13;;;;;;;5.93;4.35;;;7.50;99.90;;;;;;5020827;28;20068;-59
2021/12/19 02:22:40;;;;;;;8.13;5.47;;;7.50;99.90;;;;;;5021539;28;20111;-57
2021/12/19 02:25:07;;;;;;;6.55;5.10;;;7.50;99.90;;;;;;5021698;28;20141;-57
2021/12/19 02:27:34;;;;;;;6.18;5.05;;;7.50;99.90;;;;;;5020139;28;20060;-58
2021/12/19 02:30:01;;;;;;;5.22;4.05;;;7.40;99.90;;;;;;5021819;28;20128;-51
2021/12/19 02:32:29;;;;;;;6.80;4.65;;;7.30;99.90;;;;;;5023493;28;20108;-58
2021/12/19 02:35:00;;;;;;;5.43;4.25;;;7.30;99.90;;;;;;5023010;28;20156;-57
2021/12/19 02:48:14;;;;;;;5.63;4.10;;;7.30;99.90;;;;;;5023773;28;20081;-56
2021/12/19 02:50:48;;;;;;;5.53;3.83;;;7.30;99.90;;;;;;5023790;28;20432;-58
2021/12/19 02:53:17;;;;;;;;;;;7.30;99.90;;;;;;5023609;28;20156;-58
2021/12/19 02:55:44;;;;;;;4.05;2.63;;;7.20;99.90;;;;;;5023882;28;19933;-58
2021/12/19 02:58:11;;;;;;;4.93;3.17;;;7.20;99.90;;;;;;5019744;28;20044;-56
2021/12/19 03:00:38;;;;;;;5.22;3.47;;;7.10;99.90;;;;;;5021941;28;20203;-57
2021/12/19 03:03:05;;;;;;;4.57;3.05;;;7.20;99.90;;;;;;5021512;28;20084;-58
2021/12/19 03:05:33;;;;;;;4.05;2.63;;;7.20;99.90;;;;;;5021979;28;20045;-58
2021/12/19 03:08:02;;;;;;;5.35;3.33;;;7.20;99.90;;;;;;5022258;28;20499;-58
2021/12/19 03:18:47;;;;;;;3.70;2.35;;;7.10;99.90;;;;;;5022762;28;20099;-53
2021/12/19 03:21:16;;;;;;;3.80;2.28;;;7.10;99.90;;;;;;5021701;28;20164;-56
2021/12/19 03:23:43;;;;;;;3.60;2.20;;;7.10;99.90;;;;;;5021957;28;20137;-57
2021/12/19 03:26:10;;;;;;;4.65;3.13;;;7.10;99.90;;;;;;5022644;28;20125;-58
2021/12/19 03:28:37;;;;;;;3.20;2.10;;;7.10;99.90;;;;;;5021370;28;20133;-58
2021/12/19 03:31:04;;;;;;;3.97;2.45;;;7.10;99.90;;;;;;5025250;28;20083;-56
2021/12/19 03:33:31;;;;;;;3.67;2.38;;;7.10;99.90;;;;;;5026529;28;20138;-57
2021/12/19 03:35:57;;;;;;;3.70;2.55;;;7.10;99.90;;;;;;5026874;28;20437;-58
2021/12/19 03:38:26;;;;;;;3.15;2.28;;;7.10;99.90;;;;;;5027068;28;20233;-56
2021/12/19 03:41:07;;;;;;;3.83;2.42;;;7.10;99.90;;;;;;5026941;28;20053;-56
2021/12/19 03:43:34;;;;;;;3.72;2.75;;;7.10;99.90;;;;;;5025341;28;20148;-58
2021/12/19 03:46:01;;;;;;;3.67;2.40;;;7.20;99.90;;;;;;5026658;28;20088;-59
2021/12/19 03:48:28;;;;;;;2.88;1.85;;;7.20;99.90;;;;;;5025985;28;20512;-58
2021/12/19 03:50:55;;;;;;;3.90;2.75;;;7.20;99.90;;;;;;5026589;28;20049;-58
2021/12/19 03:53:22;;;;;;;3.03;1.90;;;7.20;99.90;;;;;;5026455;28;20049;-57
2021/12/19 03:55:50;;;;;;;3.75;2.38;;;7.20;99.90;;;;;;5027046;28;20050;-56
2021/12/19 03:58:18;;;;;;;3.80;2.42;;;7.10;99.90;;;;;;5023251;28;20516;-56
2021/12/19 04:00:45;;;;;;;4.20;2.53;;;7.10;99.90;;;;;;5025909;28;20585;-58
2021/12/19 04:03:18;;;;;;;3.78;2.45;;;7.10;99.90;;;;;;5024377;28;20050;-59
2021/12/19 04:05:49;;;;;;;3.88;2.80;;;7.10;99.90;;;;;;5026322;28;20367;-58
2021/12/19 04:08:16;;;;;;;3.70;2.20;;;7.20;99.90;;;;;;5026032;28;20076;-58
2021/12/19 04:10:43;;;;;;;4.28;2.72;;;7.20;99.90;;;;;;5025726;28;20096;-58
2021/12/19 04:13:10;;;;;;;3.20;2.53;;;7.10;99.90;;;;;;5024503;28;20452;-56
2021/12/19 04:15:37;;;;;;;3.95;2.50;;;7.10;99.90;;;;;;5026060;28;20115;-59
2021/12/19 04:18:04;;;;;;;4.07;2.70;;;7.10;99.90;;;;;;5026014;28;20362;-57
2021/12/19 04:20:31;;;;;;;4.15;2.40;;;7.10;99.90;;;;;;5025812;28;20132;-58
2021/12/19 04:22:57;;;;;;;3.20;2.35;;;7.00;99.90;;;;;;5025473;28;20140;-56
2021/12/19 04:25:24;;;;;;;3.05;2.25;;;7.10;99.90;;;;;;5026104;28;20165;-58
2021/12/19 04:27:51;;;;;;;4.60;2.78;;;7.10;99.90;;;;;;5024303;28;20493;-57
2021/12/19 04:30:21;;;;;;;3.72;2.50;;;7.10;99.90;;;;;;5020361;28;20159;-57
2021/12/19 04:32:57;;;;;;;4.00;2.47;;;7.10;99.90;;;;;;5025677;28;20093;-57
2021/12/19 04:35:31;;;;;;;3.53;2.40;;;7.10;99.90;;;;;;5026042;28;20099;-58
2021/12/19 04:41:02;;;;;;;3.88;2.75;;;7.10;99.90;;;;;;5024578;28;20132;-57
2021/12/19 04:55:19;;;;;;;3.00;2.30;;;7.00;99.90;;;;;;5025589;28;20077;-58
2021/12/19 05:15:52;;;;;;;3.10;2.30;;;7.00;99.90;;;;;;5025120;28;20472;-57
2021/12/19 05:18:21;;;;;;;3.15;2.17;;;7.00;99.90;;;;;;5024942;28;20089;-56
2021/12/19 05:20:55;;;;;;;3.45;2.40;;;6.90;99.90;;;;;;5024868;28;20093;-56
2021/12/19 05:25:59;;;;;;;3.40;2.17;;;7.00;99.90;;;;;;5024868;28;20104;-57
2021/12/19 05:28:25;;;;;;;2.83;1.98;;;7.00;99.90;;;;;;5023059;28;20049;-57
2021/12/19 05:30:52;;;;;;;2.85;2.30;;;7.00;99.90;;;;;;5022405;28;20799;-58
2021/12/19 05:33:19;;;;;;;4.07;2.47;;;7.00;99.90;;;;;;5007027;28;20088;-58
2021/12/19 05:46:38;;;;;;;3.08;2.33;;;7.00;99.90;;;;;;5024188;28;20069;-58
2021/12/19 05:49:06;;;;;;;3.22;2.40;;;7.00;99.90;;;;;;5023237;28;20111;-56
2021/12/19 05:51:34;;;;;;;2.40;1.95;;;7.00;99.90;;;;;;5022182;28;20049;-57
2021/12/19 05:54:00;;;;;;;3.45;2.40;;;6.90;99.90;;;;;;5023983;28;20192;-57
2021/12/19 05:56:27;;;;;;;2.50;2.20;;;6.90;99.90;;;;;;5023147;28;20128;-55
2021/12/19 05:58:55;;;;;;;4.10;2.13;;;6.80;99.90;;;;;;5023551;28;20581;-57
2021/12/19 06:01:22;;;;;;;3.13;2.13;;;6.70;99.90;;;;;;5023558;28;20104;-57
2021/12/19 06:03:48;;;;;;;2.60;2.10;;;6.50;99.90;;;;;;5020849;28;20152;-57
2021/12/19 06:06:15;;;;;;;2.03;1.65;;;6.50;99.90;;;;;;5022144;28;20129;-58
2021/12/19 06:08:42;;;;;;;2.38;1.80;;;6.50;99.90;;;;;;5022416;28;20158;-58
2021/12/19 06:11:10;;;;;;;2.00;1.63;;;6.50;99.90;;;;;;5021776;28;20093;-56
2021/12/19 06:13:38;;;;;;;2.50;1.98;;;6.50;99.90;;;;;;5023908;28;20644;-56
2021/12/19 06:16:07;;;;;;;2.30;1.80;;;6.50;99.90;;;;;;5024892;28;20351;-56
2021/12/19 06:18:34;;;;;;;2.50;2.03;;;6.40;99.90;;;;;;5021718;28;20413;-56
2021/12/19 06:21:01;;;;;;;3.38;2.70;;;6.40;99.90;;;;;;5022024;28;20081;-57
2021/12/19 06:23:27;;;;;;;2.35;1.80;;;6.40;99.90;;;;;;5022903;28;20132;-57
2021/12/19 06:25:54;;;;;;;2.40;1.98;;;6.30;99.90;;;;;;5021600;28;20132;-57
2021/12/19 06:28:21;;;;;;;2.65;2.00;;;6.30;99.90;;;;;;5021077;28;20076;-57
2021/12/19 06:30:48;;;;;;;2.42;1.83;;;6.40;99.90;;;;;;5023665;28;20076;-56
2021/12/19 06:33:15;;;;;;;2.80;1.83;;;6.40;99.90;;;;;;5021982;28;20163;-56
2021/12/19 06:35:42;;;;;;;2.47;1.73;;;6.50;99.90;;;;;;5025178;28;20524;-57
2021/12/19 06:38:08;;;;;;;2.47;1.75;;;6.40;99.90;;;;;;5024756;28;20128;-56
2021/12/19 06:40:35;;;;;;;2.42;1.88;;;6.30;99.90;;;;;;5024372;28;20071;-57
2021/12/19 06:43:02;;;;;;;2.58;1.40;;;6.30;99.90;;;;;;5020345;28;20582;-57
2021/12/19 06:45:29;;;;;;;2.60;1.67;;;6.30;99.90;;;;;;5021529;28;20634;-56
2021/12/19 06:47:56;;;;;;;2.50;1.83;;;6.30;99.90;;;;;;5024353;28;20095;-57
2021/12/19 06:50:22;;;;;;;1.55;1.15;;;6.30;99.90;;;;;;5024950;28;20444;-55
2021/12/19 06:52:49;;;;;;;1.80;1.23;;;6.40;99.90;;;;;;5024503;28;20149;-58
2021/12/19 06:55:16;;;;;;;1.77;1.35;;;6.40;99.90;;;;;;5025236;28;20073;-57
2021/12/19 06:57:43;;;;;;;1.75;1.20;;;6.30;99.90;;;;;;5022836;28;20136;-57
2021/12/19 07:00:13;;;;;;;1.92;1.30;;;6.30;99.90;;;;;;5024804;28;20163;-58
2021/12/19 07:02:40;;;;;;;1.83;1.33;;;6.30;99.90;;;;;;5017042;28;20041;-57
2021/12/19 07:05:07;;;;;;;2.08;1.65;;;6.30;99.90;;;;;;5026114;28;20053;-57
2021/12/19 07:07:34;;;;;;;1.83;1.42;;;6.40;99.90;;;;;;5028015;28;20046;-55
2021/12/19 07:10:01;;;;;;;1.40;1.05;;;6.40;99.90;;;;;;5028748;28;20092;-57
2021/12/19 07:12:28;;;;;;;1.42;1.10;;;6.40;99.90;;;;;;5026557;28;20140;-56
2021/12/19 07:14:55;;;;;;;2.00;1.50;;;6.40;99.90;;;;;;5028364;28;20678;-55
2021/12/19 07:17:21;;;;;;;1.80;1.17;;;6.50;99.90;;;;;;5010805;28;20496;-56
2021/12/19 07:19:48;;;;;;;1.55;1.15;;;6.50;99.90;;;;;;5028551;28;20096;-56
2021/12/19 07:22:15;;;;;;;1.83;1.30;;;6.40;99.90;;;;;;5028296;28;20602;-58
2021/12/19 07:24:42;;;;;;;1.33;1.08;;;6.40;99.90;;;;;;5028990;28;20053;-57
2021/12/19 07:27:08;;;;;;;1.65;1.33;;;6.40;99.90;;;;;;5026688;28;20168;-57
2021/12/19 07:29:35;;;;;;;1.48;1.00;;;6.40;99.90;;;;;;5028933;28;20485;-57
2021/12/19 07:32:02;;;;;;;1.83;1.35;;;6.40;99.90;;;;;;5025286;28;20140;-57
2021/12/19 07:34:35;;;;;;;1.73;1.30;;;6.40;99.90;;;;;;5022489;28;20080;-57
2021/12/19 07:37:01;;;;;;;1.60;1.17;;;6.30;99.90;;;;;;5027062;28;20085;-58
2021/12/19 07:42:02;;;;;;;3.00;1.30;;;6.20;99.90;;;;;;5025950;28;20073;-57
2021/12/19 07:44:28;;;;;;;1.88;1.30;;;6.20;99.90;;;;;;5028053;28;20352;-57
2021/12/19 07:46:55;;;;;;;1.85;1.20;;;6.20;99.90;;;;;;5026462;28;20061;-56
2021/12/19 07:49:22;;;;;;;2.22;1.30;;;6.10;99.90;;;;;;5024235;28;20045;-55
2021/12/19 07:51:49;;;;;;;1.70;1.23;;;6.00;99.90;;;;;;5025157;28;20117;-58
2021/12/19 07:54:16;;;;;;;2.13;1.52;;;6.00;99.90;;;;;;5024251;28;20676;-57
2021/12/19 07:56:42;;;;;;;1.80;1.38;;;5.90;99.90;;;;;;5024252;28;20125;-57
2021/12/19 07:59:09;;;;;;;1.48;1.15;;;5.90;99.90;;;;;;5027714;28;20470;-57
2021/12/19 08:01:36;;;;;;;2.13;1.42;;;6.00;99.90;;;;;;5026276;28;20149;-58
2021/12/19 08:04:03;;;;;;;1.63;1.25;;;5.90;99.90;;;;;;5023489;28;20056;-58
2021/12/19 08:06:30;;;;;;;1.50;1.10;;;5.90;99.90;;;;;;5024455;28;20071;-56
2021/12/19 08:09:09;;;;;;;1.65;1.33;;;5.80;99.90;;;;;;5027378;28;20061;-57
2021/12/19 08:11:39;;;;;;;1.92;1.23;;;5.80;99.90;;;;;;5025368;28;20057;-58
2021/12/19 08:14:13;;;;;;;1.90;1.30;;;5.80;99.90;;;;;;5027987;28;20054;-58
2021/12/19 08:16:41;;;;;;;1.20;0.90;;;5.70;99.90;;;;;;5019119;28;20129;-57
2021/12/19 08:19:07;;;;;;;1.30;0.90;;;5.70;99.90;;;;;;5016215;28;20164;-56
2021/12/19 08:21:35;;;;;;;1.85;1.45;;;5.60;99.90;;;;;;5010233;28;20074;-56
2021/12/19 08:24:08;;;;;;;1.33;0.90;;;5.60;99.90;;;;;;5013138;28;20483;-58
2021/12/19 08:26:35;;;;;;;1.45;1.02;;;5.60;99.90;;;;;;5000136;28;20088;-53
2021/12/19 08:29:06;;;;;;;1.33;0.93;;;5.60;99.90;;;;;;5007783;28;20139;-56
2021/12/19 08:31:33;;;;;;;1.25;0.90;;;5.70;99.90;;;;;;5014654;28;20059;-56
2021/12/19 08:33:59;;;;;;;1.48;1.00;;;5.70;99.90;;;;;;5019504;28;20089;-57
2021/12/19 08:36:27;;;;;;;0.82;0.70;;;5.80;99.90;;;;;;5015005;28;20050;-57
2021/12/19 08:38:54;;;;;;;1.67;0.95;;;5.80;99.90;;;;;;5016176;28;20103;-57
2021/12/19 08:41:21;;;;;;;1.55;0.90;;;5.80;99.90;;;;;;5018863;28;20049;-57
2021/12/19 08:43:47;;;;;;;0.88;0.60;;;5.80;99.90;;;;;;5014829;28;20476;-57
2021/12/19 08:46:14;;;;;;;1.20;0.85;;;5.80;99.90;;;;;;5011280;28;20056;-57
2021/12/19 08:48:41;;;;;;;1.00;0.80;;;5.80;99.90;;;;;;5013019;28;20100;-57
2021/12/19 08:51:08;;;;;;;1.95;1.23;;;5.80;99.90;;;;;;5007583;28;20092;-57
2021/12/19 08:53:35;;;;;;;1.73;0.90;;;5.80;99.90;;;;;;5018678;28;20999;-57
2021/12/19 08:56:02;;;;;;;1.67;1.10;;;5.80;99.90;;;;;;5013911;28;20081;-58
2021/12/19 08:58:29;;;;;;;0.93;0.85;;;5.90;99.90;;;;;;5012021;28;20174;-57
2021/12/19 09:01:01;;;;;;;1.35;1.00;;;6.00;99.90;;;;;;5007646;28;20077;-58
2021/12/19 09:03:29;;;;;;;1.15;0.70;;;6.00;99.90;;;;;;5019567;28;20100;-57
2021/12/19 09:05:56;;;;;;;1.13;0.80;;;5.90;99.90;;;;;;5019849;28;20065;-56
2021/12/19 09:08:23;;;;;;;1.50;1.00;;;5.90;99.90;;;;;;5018090;28;20073;-57
2021/12/19 09:10:49;;;;;;;1.17;0.80;;;5.90;99.90;;;;;;5006800;28;20160;-57
2021/12/19 09:13:16;;;;;;;1.20;0.70;;;6.00;99.90;;;;;;5016786;28;20111;-57
2021/12/19 09:15:43;;;;;;;1.15;0.73;;;6.00;99.90;;;;;;5004445;28;20462;-57
2021/12/19 09:18:10;;;;;;;1.45;0.90;;;6.10;99.90;;;;;;5009701;28;20056;-57
2021/12/19 09:20:36;;;;;;;1.00;0.70;;;6.10;99.90;;;;;;5009738;28;20668;-52
2021/12/19 09:23:03;;;;;;;0.90;0.73;;;6.20;99.90;;;;;;5004984;28;20088;-55
2021/12/19 09:25:30;;;;;;;1.60;0.93;;;6.30;99.90;;;;;;5016729;28;20164;-56
2021/12/19 09:27:57;;;;;;;1.50;0.80;;;6.40;99.90;;;;;;5006564;28;20137;-58
2021/12/19 09:30:25;;;;;;;1.42;1.10;;;6.40;99.90;;;;;;5011475;28;20049;-57
2021/12/19 09:32:53;;;;;;;2.08;1.30;;;6.50;99.90;;;;;;5019248;28;20041;-58
2021/12/19 09:35:20;;;;;;;1.65;1.23;;;6.60;99.90;;;;;;5011055;28;20049;-57
2021/12/19 09:37:46;;;;;;;1.40;0.98;;;6.60;99.90;;;;;;5015742;28;20245;-58
2021/12/19 09:40:19;;;;;;;1.65;1.05;;;6.50;99.90;;;;;;5012888;28;20146;-59
2021/12/19 09:42:49;;;;;;;1.53;1.03;;;6.50;99.90;;;;;;5018488;28;20472;-59
2021/12/19 09:45:16;;;;;;;2.10;0.98;;;6.60;99.90;;;;;;5020190;28;20100;-57
2021/12/19 09:47:43;;;;;;;1.98;1.27;;;6.60;99.90;;;;;;5018958;28;20408;-57
2021/12/19 09:50:10;;;;;;;2.22;1.23;;;6.60;99.90;;;;;;5014666;28;20080;-56
2021/12/19 09:52:37;;;;;;;1.95;1.40;;;6.60;99.90;;;;;;5008584;28;20499;-58
2021/12/19 09:55:05;;;;;;;2.17;1.25;;;6.50;99.90;;;;;;5019930;28;20050;-58
2021/12/19 09:57:31;;;;;;;3.42;1.65;;;6.50;99.90;;;;;;5009455;28;20144;-58
2021/12/19 09:59:59;;;;;;;2.00;1.38;;;6.40;99.90;;;;;;5004268;28;20124;-58
2021/12/19 10:02:26;;;;;;;2.03;1.42;;;6.30;99.90;;;;;;5011294;28;20059;-59
2021/12/19 10:04:53;;;;;;;2.00;1.17;;;6.30;99.90;;;;;;5012838;28;20057;-57
2021/12/19 10:07:27;;;;;;;1.70;1.10;;;6.20;99.90;;;;;;5018458;28;20126;-57
2021/12/19 10:10:01;;;;;;;2.58;1.50;;;6.30;99.90;;;;;;5014855;28;20147;-58
2021/12/19 10:15:05;;;;;;;1.58;1.00;;;6.40;99.90;;;;;;5009715;28;19929;-56
2021/12/19 10:17:32;;;;;;;1.10;0.80;;;6.50;99.90;;;;;;5002468;28;20058;-55
2021/12/19 10:20:02;;;;;;;1.70;1.05;;;6.60;99.90;;;;;;5001015;28;20073;-57
2021/12/19 10:22:36;;;;;;;1.70;1.10;;;6.60;99.90;;;;;;5007668;28;20140;-57
2021/12/19 10:25:09;;;;;;;1.95;1.38;;;6.70;99.90;;;;;;5004209;28;20137;-58
2021/12/19 10:27:50;;;;;;;11.95;7.15;;;6.70;99.90;;;;;;5013652;28;20574;-57
2021/12/19 10:30:18;;;;;;;11.13;7.65;;;6.70;99.90;;;;;;5019621;28;20073;-58
2021/12/19 10:33:24;;;;;;;8.20;6.55;;;6.80;99.90;;;;;;5008647;28;20593;-58
2021/12/19 10:36:10;;;;;;;6.28;4.63;;;6.80;99.90;;;;;;5009553;28;20143;-55
2021/12/19 10:38:42;;;;;;;5.00;3.17;;;6.90;99.90;;;;;;5009109;28;20073;-58
2021/12/19 10:41:10;;;;;;;6.32;3.17;;;6.90;99.90;;;;;;5013335;28;20814;-57
2021/12/19 10:44:06;;;;;;;4.15;2.88;;;6.80;99.90;;;;;;5016829;28;20057;-57
2021/12/19 10:46:33;;;;;;;2.70;1.80;;;6.80;99.90;;;;;;5018178;28;20149;-57
2021/12/19 10:49:01;;;;;;;2.55;1.80;;;6.80;99.90;;;;;;5016229;28;20069;-57
2021/12/19 10:51:32;;;;;;;2.60;1.90;;;6.90;99.90;;;;;;5007130;28;20045;-57
2021/12/19 10:54:03;;;;;;;2.17;1.55;;;6.90;99.90;;;;;;5013611;28;20076;-58
2021/12/19 10:56:34;;;;;;;2.65;1.80;;;7.00;99.90;;;;;;5012600;28;20860;-56
2021/12/19 10:59:06;;;;;;;2.08;1.58;;;7.00;99.90;;;;;;5010213;28;20167;-55
2021/12/19 11:01:34;;;;;;;2.40;1.90;;;7.10;99.90;;;;;;5004598;28;20052;-57
2021/12/19 11:04:14;;;;;;;2.40;1.80;;;7.10;99.90;;;;;;5019779;28;20053;-58
2021/12/19 11:06:45;;;;;;;2.78;1.67;;;7.20;99.90;;;;;;5017256;28;20381;-54
2021/12/19 11:09:29;;;;;;;2.40;1.75;;;7.20;99.90;;;;;;5017117;28;20120;-57
2021/12/19 11:12:06;;;;;;;2.60;1.92;;;7.10;99.90;;;;;;5011891;28;20136;-58
2021/12/19 11:14:44;;;;;;;2.65;1.92;;;7.10;99.90;;;;;;5018102;28;20088;-58
2021/12/19 11:17:12;;;;;;;3.15;2.47;;;7.10;99.90;;;;;;5005416;28;20140;-58
2021/12/19 11:19:40;;;;;;;3.53;2.15;;;7.00;99.90;;;;;;5007576;28;20054;-56
2021/12/19 11:22:23;;;;;;;2.47;1.80;;;7.00;99.90;;;;;;5013697;28;20058;-57
2021/12/19 11:24:53;;;;;;;1.85;1.67;;;7.00;99.90;;;;;;5013399;28;20160;-55
2021/12/19 11:27:19;;;;;;;2.35;1.77;;;7.00;99.90;;;;;;5010593;28;20137;-57
2021/12/19 11:29:48;;;;;;;2.53;1.60;;;7.00;99.90;;;;;;5001880;28;20096;-58
2021/12/19 11:32:19;;;;;;;2.08;1.55;;;7.10;99.90;;;;;;5010954;28;20152;-58
2021/12/19 11:34:56;;;;;;;2.22;1.52;;;7.10;99.90;;;;;;5009442;28;20183;-58
2021/12/19 11:37:28;;;;;;;2.70;1.83;;;7.00;99.90;;;;;;5006949;28;20127;-58
2021/12/19 11:39:55;;;;;;;2.47;1.65;;;7.00;99.90;;;;;;5006146;28;20132;-57
2021/12/19 11:42:30;;;;;;;2.55;2.03;;;6.90;99.90;;;;;;5012494;28;20558;-58
2021/12/19 11:47:58;;;;;;;2.72;2.20;;;6.80;99.90;;;;;;5017230;28;20540;-58
2021/12/19 11:50:28;;;;;;;2.35;1.80;;;6.90;99.90;;;;;;5020869;28;20049;-57
2021/12/19 11:53:00;;;;;;;3.17;1.92;;;6.80;99.90;;;;;;5020783;28;20079;-58
2021/12/19 11:55:29;;;;;;;2.73;2.03;;;6.90;99.90;;;;;;5015287;28;20057;-57
2021/12/19 11:58:08;;;;;;;2.88;2.08;;;6.80;99.90;;;;;;5009708;28;20658;-57
2021/12/19 12:00:38;;;;;;;2.85;1.80;;;6.90;99.90;;;;;;5006567;28;20640;-58
2021/12/19 12:03:11;;;;;;;2.72;1.95;;;6.90;99.90;;;;;;5020965;28;20396;-58
2021/12/19 12:05:45;;;;;;;2.80;2.05;;;7.00;99.90;;;;;;5015161;28;20423;-58
2021/12/19 12:08:13;;;;;;;;;;;7.10;99.90;;;;;;5020444;28;20129;-58
2021/12/19 12:10:49;;;;;;;3.20;2.15;;;7.10;99.90;;;;;;5021775;28;20404;-56
2021/12/19 12:13:21;;;;;;;3.13;2.45;;;7.10;99.90;;;;;;5013953;28;20070;-59
2021/12/19 12:15:54;;;;;;;2.72;2.10;;;7.10;99.90;;;;;;5017892;28;20165;-59
2021/12/19 12:18:34;;;;;;;2.63;2.15;;;7.10;99.90;;;;;;5010514;28;20161;-60
2021/12/19 12:24:04;;;;;;;3.50;3.15;;;7.10;99.90;;;;;;5020643;28;20057;-57
2021/12/19 12:27:05;;;;;;;3.40;2.90;;;7.00;99.90;;;;;;5015398;28;20097;-58
2021/12/19 12:29:32;;;;;;;3.70;3.30;;;7.00;99.90;;;;;;5015086;28;20128;-59
2021/12/19 12:31:58;;;;;;;4.63;4.15;;;6.90;99.90;;;;;;5010878;28;20052;-59
2021/12/19 12:34:25;;;;;;;3.97;3.28;;;6.90;99.90;;;;;;5010938;28;20856;-57
2021/12/19 12:36:55;;;;;;;3.30;2.90;;;6.80;99.90;;;;;;5012615;28;20559;-58
2021/12/19 12:39:27;;;;;;;4.18;2.88;;;6.80;99.90;;;;;;5017812;28;20876;-58
2021/12/19 12:42:03;;;;;;;3.35;2.40;;;6.70;99.90;;;;;;5015781;28;20124;-58
2021/12/19 12:44:29;;;;;;;2.72;1.95;;;6.60;99.90;;;;;;5017868;28;20068;-57
2021/12/19 12:46:57;;;;;;;2.58;1.88;;;6.60;99.90;;;;;;5018109;28;20082;-58
2021/12/19 12:49:25;;;;;;;2.47;1.98;;;6.60;99.90;;;;;;5015153;28;20132;-58
2021/12/19 12:51:57;;;;;;;2.58;2.20;;;6.70;99.90;;;;;;5011715;28;20049;-58
2021/12/19 12:54:32;;;;;;;3.95;2.30;;;6.70;99.90;;;;;;5021192;28;20077;-58
2021/12/19 12:57:00;;;;;;;2.90;1.95;;;6.80;99.90;;;;;;5019957;28;20055;-56
2021/12/19 12:59:31;;;;;;;3.38;2.63;;;6.70;99.90;;;;;;5021629;28;20053;-58
2021/12/19 13:02:16;;;;;;;3.92;2.83;;;6.70;99.90;;;;;;5020404;28;20045;-60
2021/12/19 13:04:46;;;;;;;3.53;2.85;;;6.70;99.90;;;;;;5020441;28;20049;-58
2021/12/19 13:07:15;;;;;;;4.65;3.60;;;6.60;99.90;;;;;;5020993;28;20118;-58
2021/12/19 13:10:00;;;;;;;3.55;2.88;;;6.60;99.90;;;;;;5021630;28;20049;-58
2021/12/19 13:12:32;;;;;;;4.18;3.33;;;6.40;99.90;;;;;;5017829;28;20115;-58
2021/12/19 13:14:59;;;;;;;3.42;2.80;;;6.40;99.90;;;;;;5021370;28;20408;-58
2021/12/19 13:17:43;;;;;;;3.95;3.50;;;6.40;99.90;;;;;;5021015;28;20119;-57
2021/12/19 13:20:14;;;;;;;;;;;6.40;99.90;;;;;;5020326;28;20472;-56
2021/12/19 13:22:48;;;;;;;3.33;2.55;;;6.50;99.90;;;;;;5021003;28;19971;-58
2021/12/19 13:25:22;;;;;;;3.85;2.85;;;6.50;99.90;;;;;;5020172;28;20089;-56
2021/12/19 13:28:00;;;;;;;3.80;2.70;;;6.60;99.90;;;;;;5004452;28;20081;-57
2021/12/19 13:30:31;;;;;;;3.30;2.78;;;6.60;99.90;;;;;;5000380;28;20439;-57
2021/12/19 13:32:59;;;;;;;3.97;2.33;;;6.50;99.90;;;;;;5016086;28;20053;-59
2021/12/19 13:35:49;;;;;;;2.90;2.13;;;6.50;99.90;;;;;;5021112;28;20059;-57
2021/12/19 13:38:23;;;;;;;3.28;2.63;;;6.30;99.90;;;;;;5003518;28;20137;-59
2021/12/19 13:40:59;;;;;;;2.47;2.10;;;6.20;99.90;;;;;;5014666;28;20052;-58
2021/12/19 13:43:37;;;;;;;2.00;1.80;;;6.10;99.90;;;;;;5018481;28;20125;-58
2021/12/19 13:46:11;;;;;;;2.42;1.80;;;6.10;99.90;;;;;;5019489;28;20136;-59
2021/12/19 13:48:41;;;;;;;2.03;1.63;;;6.00;99.90;;;;;;5019858;28;20524;-57
2021/12/19 13:51:27;;;;;;;2.33;1.75;;;6.00;99.90;;;;;;5011886;28;20505;-58
2021/12/19 13:53:58;;;;;;;2.58;2.08;;;6.10;99.90;;;;;;5013956;28;20497;-57
2021/12/19 13:56:27;;;;;;;2.72;1.98;;;6.00;99.90;;;;;;5009201;28;20595;-57
2021/12/19 13:58:56;;;;;;;2.78;1.90;;;6.00;99.90;;;;;;5012223;28;20161;-58
2021/12/19 14:01:30;;;;;;;2.17;1.73;;;6.00;99.90;;;;;;5005991;28;20160;-57
2021/12/19 14:03:58;;;;;;;2.63;2.15;;;6.10;99.90;;;;;;5016939;28;20120;-60
2021/12/19 14:06:31;;;;;;;3.10;2.00;;;6.10;99.90;;;;;;5020527;28;20072;-58
2021/12/19 14:09:13;;;;;;;3.55;2.40;;;6.10;99.90;;;;;;5017533;28;20505;-56
2021/12/19 14:11:44;;;;;;;2.08;1.75;;;6.10;99.90;;;;;;5009158;28;20664;-54
2021/12/19 14:14:31;;;;;;;2.65;1.90;;;6.10;99.90;;;;;;5018809;28;20092;-56
2021/12/19 14:17:09;;;;;;;4.45;2.60;;;6.00;99.90;;;;;;5009173;28;20046;-59
2021/12/19 14:19:36;;;;;;;3.08;2.40;;;6.00;99.90;;;;;;5020006;28;20136;-57
2021/12/19 14:22:06;;;;;;;2.65;2.20;;;6.00;99.90;;;;;;5019617;28;20065;-59
2021/12/19 14:24:37;;;;;;;3.72;2.15;;;5.90;99.90;;;;;;5019788;28;20143;-58
2021/12/19 14:27:06;;;;;;;3.13;2.30;;;5.90;99.90;;;;;;5018133;28;20065;-58
2021/12/19 14:29:34;;;;;;;3.10;2.30;;;5.90;99.90;;;;;;5020301;28;20060;-59
2021/12/19 14:32:06;;;;;;;2.33;1.88;;;5.90;99.90;;;;;;5020007;28;20095;-59
2021/12/19 14:34:33;;;;;;;3.33;2.10;;;6.00;99.90;;;;;;5019528;28;20088;-58
2021/12/19 14:37:13;;;;;;;3.22;2.10;;;5.90;99.90;;;;;;5019783;28;20135;-58